sensor_id;sensor_type;location;lat;lon;timestamp;P1;durP1;ratioP1;P2;durP2;ratioP2
73084;SDS011;62974;49.460;10.892;2023-04-24T00:00:35;1.73;;;0.73;;
73084;SDS011;62974;49.460;10.892;2023-04-24T00:03:04;1.58;;;0.90;;
73084;SDS011;62974;49.460;10.892;2023-04-24T00:05:32;2.78;;;1.00;;
73084;SDS011;62974;49.460;10.892;2023-04-24T00:07:59;1.45;;;0.85;;
73084;SDS011;62974;49.460;10.892;2023-04-24T00:10:27;2.17;;;0.73;;
73084;SDS011;62974;49.460;10.892;2023-04-24T00:12:54;1.83;;;0.90;;
73084;SDS011;62974;49.460;10.892;2023-04-24T00:15:24;3.17;;;0.90;;
73084;SDS011;62974;49.460;10.892;2023-04-24T00:17:51;1.98;;;0.88;;
73084;SDS011;62974;49.460;10.892;2023-04-24T00:20:19;0.80;;;0.60;;
73084;SDS011;62974;49.460;10.892;2023-04-24T00:22:47;1.88;;;0.80;;
73084;SDS011;62974;49.460;10.892;2023-04-24T00:25:14;1.27;;;0.68;;
73084;SDS011;62974;49.460;10.892;2023-04-24T00:27:42;1.02;;;0.88;;
73084;SDS011;62974;49.460;10.892;2023-04-24T00:30:10;0.60;;;0.40;;
73084;SDS011;62974;49.460;10.892;2023-04-24T00:32:39;1.25;;;0.60;;
73084;SDS011;62974;49.460;10.892;2023-04-24T00:35:06;1.48;;;0.65;;
73084;SDS011;62974;49.460;10.892;2023-04-24T00:37:34;2.70;;;0.70;;
73084;SDS011;62974;49.460;10.892;2023-04-24T00:40:02;1.85;;;0.80;;
73084;SDS011;62974;49.460;10.892;2023-04-24T00:42:30;2.53;;;0.80;;
73084;SDS011;62974;49.460;10.892;2023-04-24T00:44:58;1.38;;;0.65;;
73084;SDS011;62974;49.460;10.892;2023-04-24T00:47:25;1.23;;;0.70;;
73084;SDS011;62974;49.460;10.892;2023-04-24T00:49:55;1.65;;;0.57;;
73084;SDS011;62974;49.460;10.892;2023-04-24T00:52:23;2.38;;;0.80;;
73084;SDS011;62974;49.460;10.892;2023-04-24T00:54:51;1.38;;;0.60;;
73084;SDS011;62974;49.460;10.892;2023-04-24T00:57:18;1.05;;;0.40;;
73084;SDS011;62974;49.460;10.892;2023-04-24T00:59:47;2.15;;;0.80;;
73084;SDS011;62974;49.460;10.892;2023-04-24T01:02:15;1.73;;;0.90;;
73084;SDS011;62974;49.460;10.892;2023-04-24T01:04:43;2.03;;;0.85;;
73084;SDS011;62974;49.460;10.892;2023-04-24T01:07:12;2.53;;;0.77;;
73084;SDS011;62974;49.460;10.892;2023-04-24T01:09:40;1.00;;;0.65;;
73084;SDS011;62974;49.460;10.892;2023-04-24T01:12:09;1.08;;;0.73;;
73084;SDS011;62974;49.460;10.892;2023-04-24T01:14:37;1.40;;;0.70;;
73084;SDS011;62974;49.460;10.892;2023-04-24T01:17:05;1.30;;;0.60;;
73084;SDS011;62974;49.460;10.892;2023-04-24T01:19:33;0.90;;;0.55;;
73084;SDS011;62974;49.460;10.892;2023-04-24T01:22:01;1.15;;;0.60;;
73084;SDS011;62974;49.460;10.892;2023-04-24T01:24:31;1.42;;;0.63;;
73084;SDS011;62974;49.460;10.892;2023-04-24T01:26:58;0.98;;;0.60;;
73084;SDS011;62974;49.460;10.892;2023-04-24T01:29:27;1.23;;;0.52;;
73084;SDS011;62974;49.460;10.892;2023-04-24T01:31:54;1.23;;;0.50;;
73084;SDS011;62974;49.460;10.892;2023-04-24T01:34:24;2.15;;;0.63;;
73084;SDS011;62974;49.460;10.892;2023-04-24T01:36:52;1.85;;;0.50;;
73084;SDS011;62974;49.460;10.892;2023-04-24T01:39:20;1.55;;;0.60;;
73084;SDS011;62974;49.460;10.892;2023-04-24T01:41:50;1.83;;;0.43;;
73084;SDS011;62974;49.460;10.892;2023-04-24T01:44:18;1.05;;;0.40;;
73084;SDS011;62974;49.460;10.892;2023-04-24T01:46:46;1.40;;;0.40;;
73084;SDS011;62974;49.460;10.892;2023-04-24T01:49:14;2.00;;;0.55;;
73084;SDS011;62974;49.460;10.892;2023-04-24T01:51:41;0.45;;;0.40;;
73084;SDS011;62974;49.460;10.892;2023-04-24T01:54:09;0.85;;;0.63;;
73084;SDS011;62974;49.460;10.892;2023-04-24T01:56:36;0.98;;;0.60;;
73084;SDS011;62974;49.460;10.892;2023-04-24T01:59:11;1.40;;;0.50;;
73084;SDS011;62974;49.460;10.892;2023-04-24T02:01:39;0.47;;;0.30;;
73084;SDS011;62974;49.460;10.892;2023-04-24T02:04:06;2.67;;;0.93;;
73084;SDS011;62974;49.460;10.892;2023-04-24T02:06:35;0.82;;;0.57;;
73084;SDS011;62974;49.460;10.892;2023-04-24T02:09:03;1.00;;;0.50;;
73084;SDS011;62974;49.460;10.892;2023-04-24T02:11:30;0.75;;;0.43;;
73084;SDS011;62974;49.460;10.892;2023-04-24T02:13:58;1.20;;;0.45;;
73084;SDS011;62974;49.460;10.892;2023-04-24T02:16:27;0.73;;;0.43;;
73084;SDS011;62974;49.460;10.892;2023-04-24T02:18:56;0.70;;;0.50;;
73084;SDS011;62974;49.460;10.892;2023-04-24T02:21:24;0.75;;;0.57;;
73084;SDS011;62974;49.460;10.892;2023-04-24T02:23:51;1.77;;;0.70;;
73084;SDS011;62974;49.460;10.892;2023-04-24T02:26:19;1.02;;;0.50;;
73084;SDS011;62974;49.460;10.892;2023-04-24T02:28:46;0.80;;;0.47;;
73084;SDS011;62974;49.460;10.892;2023-04-24T02:31:14;0.63;;;0.40;;
73084;SDS011;62974;49.460;10.892;2023-04-24T02:33:43;0.90;;;0.40;;
73084;SDS011;62974;49.460;10.892;2023-04-24T02:36:11;1.42;;;0.45;;
73084;SDS011;62974;49.460;10.892;2023-04-24T02:38:39;1.25;;;0.50;;
73084;SDS011;62974;49.460;10.892;2023-04-24T02:41:06;0.85;;;0.40;;
73084;SDS011;62974;49.460;10.892;2023-04-24T02:43:34;0.50;;;0.30;;
73084;SDS011;62974;49.460;10.892;2023-04-24T02:46:01;0.98;;;0.55;;
73084;SDS011;62974;49.460;10.892;2023-04-24T02:48:29;0.98;;;0.77;;
73084;SDS011;62974;49.460;10.892;2023-04-24T02:50:58;0.43;;;0.30;;
73084;SDS011;62974;49.460;10.892;2023-04-24T02:53:26;0.73;;;0.40;;
73084;SDS011;62974;49.460;10.892;2023-04-24T02:55:53;1.15;;;0.50;;
73084;SDS011;62974;49.460;10.892;2023-04-24T02:58:21;1.15;;;0.50;;
73084;SDS011;62974;49.460;10.892;2023-04-24T03:00:48;0.80;;;0.60;;
73084;SDS011;62974;49.460;10.892;2023-04-24T03:03:20;0.90;;;0.57;;
73084;SDS011;62974;49.460;10.892;2023-04-24T03:05:47;0.77;;;0.40;;
73084;SDS011;62974;49.460;10.892;2023-04-24T03:08:16;1.33;;;0.55;;
73084;SDS011;62974;49.460;10.892;2023-04-24T03:10:44;1.35;;;0.45;;
73084;SDS011;62974;49.460;10.892;2023-04-24T03:13:13;0.47;;;0.38;;
73084;SDS011;62974;49.460;10.892;2023-04-24T03:15:41;1.05;;;0.70;;
73084;SDS011;62974;49.460;10.892;2023-04-24T03:18:08;0.50;;;0.35;;
73084;SDS011;62974;49.460;10.892;2023-04-24T03:20:36;2.33;;;0.65;;
73084;SDS011;62974;49.460;10.892;2023-04-24T03:23:03;1.02;;;0.20;;
73084;SDS011;62974;49.460;10.892;2023-04-24T03:25:32;1.02;;;0.60;;
73084;SDS011;62974;49.460;10.892;2023-04-24T03:28:00;0.43;;;0.30;;
73084;SDS011;62974;49.460;10.892;2023-04-24T03:30:27;1.38;;;0.60;;
73084;SDS011;62974;49.460;10.892;2023-04-24T03:32:55;0.25;;;0.25;;
73084;SDS011;62974;49.460;10.892;2023-04-24T03:35:22;0.65;;;0.30;;
73084;SDS011;62974;49.460;10.892;2023-04-24T03:37:50;0.55;;;0.32;;
73084;SDS011;62974;49.460;10.892;2023-04-24T03:40:17;1.60;;;0.50;;
73084;SDS011;62974;49.460;10.892;2023-04-24T03:42:46;0.50;;;0.50;;
73084;SDS011;62974;49.460;10.892;2023-04-24T03:45:14;0.77;;;0.50;;
73084;SDS011;62974;49.460;10.892;2023-04-24T03:47:41;0.68;;;0.47;;
73084;SDS011;62974;49.460;10.892;2023-04-24T03:50:09;0.95;;;0.50;;
73084;SDS011;62974;49.460;10.892;2023-04-24T03:52:38;1.33;;;0.57;;
73084;SDS011;62974;49.460;10.892;2023-04-24T03:55:06;1.70;;;0.50;;
73084;SDS011;62974;49.460;10.892;2023-04-24T03:57:34;2.13;;;0.70;;
73084;SDS011;62974;49.460;10.892;2023-04-24T04:00:03;0.88;;;0.60;;
73084;SDS011;62974;49.460;10.892;2023-04-24T04:02:32;0.90;;;0.80;;
73084;SDS011;62974;49.460;10.892;2023-04-24T04:05:00;2.75;;;0.57;;
73084;SDS011;62974;49.460;10.892;2023-04-24T04:07:28;2.78;;;0.60;;
73084;SDS011;62974;49.460;10.892;2023-04-24T04:09:56;0.75;;;0.40;;
73084;SDS011;62974;49.460;10.892;2023-04-24T04:12:23;2.85;;;0.60;;
73084;SDS011;62974;49.460;10.892;2023-04-24T04:14:51;0.82;;;0.55;;
73084;SDS011;62974;49.460;10.892;2023-04-24T04:17:19;1.02;;;0.70;;
73084;SDS011;62974;49.460;10.892;2023-04-24T04:19:47;0.85;;;0.60;;
73084;SDS011;62974;49.460;10.892;2023-04-24T04:22:14;2.60;;;0.60;;
73084;SDS011;62974;49.460;10.892;2023-04-24T04:24:42;0.95;;;0.50;;
73084;SDS011;62974;49.460;10.892;2023-04-24T04:27:10;0.95;;;0.50;;
73084;SDS011;62974;49.460;10.892;2023-04-24T04:29:38;2.65;;;0.70;;
73084;SDS011;62974;49.460;10.892;2023-04-24T04:32:06;1.00;;;0.68;;
73084;SDS011;62974;49.460;10.892;2023-04-24T04:34:35;1.85;;;0.60;;
73084;SDS011;62974;49.460;10.892;2023-04-24T04:37:03;1.35;;;0.47;;
73084;SDS011;62974;49.460;10.892;2023-04-24T04:39:32;0.73;;;0.52;;
73084;SDS011;62974;49.460;10.892;2023-04-24T04:41:59;2.03;;;0.60;;
73084;SDS011;62974;49.460;10.892;2023-04-24T04:44:27;2.17;;;0.50;;
73084;SDS011;62974;49.460;10.892;2023-04-24T04:46:55;1.15;;;0.70;;
73084;SDS011;62974;49.460;10.892;2023-04-24T04:49:24;0.65;;;0.50;;
73084;SDS011;62974;49.460;10.892;2023-04-24T04:51:55;0.73;;;0.45;;
73084;SDS011;62974;49.460;10.892;2023-04-24T04:54:23;0.93;;;0.55;;
73084;SDS011;62974;49.460;10.892;2023-04-24T04:56:51;1.13;;;0.80;;
73084;SDS011;62974;49.460;10.892;2023-04-24T04:59:18;0.63;;;0.30;;
73084;SDS011;62974;49.460;10.892;2023-04-24T05:01:45;1.05;;;0.60;;
73084;SDS011;62974;49.460;10.892;2023-04-24T05:04:13;1.30;;;0.65;;
73084;SDS011;62974;49.460;10.892;2023-04-24T05:06:41;1.17;;;0.60;;
73084;SDS011;62974;49.460;10.892;2023-04-24T05:09:10;1.08;;;0.70;;
73084;SDS011;62974;49.460;10.892;2023-04-24T05:11:37;1.00;;;0.70;;
73084;SDS011;62974;49.460;10.892;2023-04-24T05:14:05;2.13;;;0.60;;
73084;SDS011;62974;49.460;10.892;2023-04-24T05:16:32;1.15;;;0.70;;
73084;SDS011;62974;49.460;10.892;2023-04-24T05:19:00;0.93;;;0.50;;
73084;SDS011;62974;49.460;10.892;2023-04-24T05:21:28;0.80;;;0.55;;
73084;SDS011;62974;49.460;10.892;2023-04-24T05:23:55;1.10;;;0.60;;
73084;SDS011;62974;49.460;10.892;2023-04-24T05:26:24;1.38;;;0.73;;
73084;SDS011;62974;49.460;10.892;2023-04-24T05:28:52;0.82;;;0.60;;
73084;SDS011;62974;49.460;10.892;2023-04-24T05:31:19;1.02;;;0.45;;
73084;SDS011;62974;49.460;10.892;2023-04-24T05:33:47;1.75;;;0.63;;
73084;SDS011;62974;49.460;10.892;2023-04-24T05:36:14;0.80;;;0.57;;
73084;SDS011;62974;49.460;10.892;2023-04-24T05:38:42;0.75;;;0.50;;
73084;SDS011;62974;49.460;10.892;2023-04-24T05:41:09;1.02;;;0.45;;
73084;SDS011;62974;49.460;10.892;2023-04-24T05:43:38;0.28;;;0.28;;
73084;SDS011;62974;49.460;10.892;2023-04-24T05:46:06;5.60;;;0.98;;
73084;SDS011;62974;49.460;10.892;2023-04-24T05:48:33;1.27;;;0.73;;
73084;SDS011;62974;49.460;10.892;2023-04-24T05:51:01;0.82;;;0.50;;
73084;SDS011;62974;49.460;10.892;2023-04-24T05:53:28;3.33;;;0.60;;
73084;SDS011;62974;49.460;10.892;2023-04-24T05:55:56;1.33;;;0.60;;
73084;SDS011;62974;49.460;10.892;2023-04-24T05:58:24;1.48;;;0.70;;
73084;SDS011;62974;49.460;10.892;2023-04-24T06:00:53;1.85;;;0.70;;
73084;SDS011;62974;49.460;10.892;2023-04-24T06:03:21;3.65;;;0.60;;
73084;SDS011;62974;49.460;10.892;2023-04-24T06:05:49;3.42;;;0.80;;
73084;SDS011;62974;49.460;10.892;2023-04-24T06:08:17;1.52;;;0.77;;
73084;SDS011;62974;49.460;10.892;2023-04-24T06:10:44;1.67;;;0.70;;
73084;SDS011;62974;49.460;10.892;2023-04-24T06:13:12;0.88;;;0.50;;
73084;SDS011;62974;49.460;10.892;2023-04-24T06:15:39;1.67;;;0.60;;
73084;SDS011;62974;49.460;10.892;2023-04-24T06:18:08;0.85;;;0.43;;
73084;SDS011;62974;49.460;10.892;2023-04-24T06:20:36;0.85;;;0.20;;
73084;SDS011;62974;49.460;10.892;2023-04-24T06:23:04;2.63;;;0.80;;
73084;SDS011;62974;49.460;10.892;2023-04-24T06:25:31;0.82;;;0.47;;
73084;SDS011;62974;49.460;10.892;2023-04-24T06:27:59;1.20;;;0.63;;
73084;SDS011;62974;49.460;10.892;2023-04-24T06:30:27;0.65;;;0.30;;
73084;SDS011;62974;49.460;10.892;2023-04-24T06:32:55;2.50;;;0.73;;
73084;SDS011;62974;49.460;10.892;2023-04-24T06:35:32;0.20;;;0.20;;
73084;SDS011;62974;49.460;10.892;2023-04-24T06:38:00;0.38;;;0.30;;
73084;SDS011;62974;49.460;10.892;2023-04-24T06:40:27;0.70;;;0.40;;
73084;SDS011;62974;49.460;10.892;2023-04-24T06:42:55;0.40;;;0.30;;
73084;SDS011;62974;49.460;10.892;2023-04-24T06:45:23;1.75;;;0.57;;
73084;SDS011;62974;49.460;10.892;2023-04-24T06:47:51;3.13;;;1.00;;
73084;SDS011;62974;49.460;10.892;2023-04-24T06:50:19;1.75;;;0.80;;
73084;SDS011;62974;49.460;10.892;2023-04-24T06:52:48;1.70;;;0.50;;
73084;SDS011;62974;49.460;10.892;2023-04-24T06:55:16;2.45;;;0.70;;
73084;SDS011;62974;49.460;10.892;2023-04-24T06:57:43;2.25;;;0.50;;
73084;SDS011;62974;49.460;10.892;2023-04-24T07:00:12;1.80;;;0.90;;
73084;SDS011;62974;49.460;10.892;2023-04-24T07:02:40;0.32;;;0.30;;
73084;SDS011;62974;49.460;10.892;2023-04-24T07:05:08;2.17;;;0.43;;
73084;SDS011;62974;49.460;10.892;2023-04-24T07:07:35;1.33;;;0.50;;
73084;SDS011;62974;49.460;10.892;2023-04-24T07:10:05;0.65;;;0.50;;
73084;SDS011;62974;49.460;10.892;2023-04-24T07:12:34;2.38;;;0.68;;
73084;SDS011;62974;49.460;10.892;2023-04-24T07:15:04;1.20;;;0.70;;
73084;SDS011;62974;49.460;10.892;2023-04-24T07:17:32;0.57;;;0.40;;
73084;SDS011;62974;49.460;10.892;2023-04-24T07:19:59;1.67;;;1.05;;
73084;SDS011;62974;49.460;10.892;2023-04-24T07:22:27;1.23;;;0.75;;
73084;SDS011;62974;49.460;10.892;2023-04-24T07:24:54;1.52;;;0.73;;
73084;SDS011;62974;49.460;10.892;2023-04-24T07:27:23;1.42;;;0.77;;
73084;SDS011;62974;49.460;10.892;2023-04-24T07:29:51;1.38;;;0.75;;
73084;SDS011;62974;49.460;10.892;2023-04-24T07:32:18;0.77;;;0.55;;
73084;SDS011;62974;49.460;10.892;2023-04-24T07:34:46;0.47;;;0.40;;
73084;SDS011;62974;49.460;10.892;2023-04-24T07:37:13;1.05;;;0.45;;
73084;SDS011;62974;49.460;10.892;2023-04-24T07:39:41;2.35;;;1.10;;
73084;SDS011;62974;49.460;10.892;2023-04-24T07:42:09;3.22;;;2.25;;
73084;SDS011;62974;49.460;10.892;2023-04-24T07:44:37;1.80;;;1.17;;
73084;SDS011;62974;49.460;10.892;2023-04-24T07:47:05;1.65;;;0.90;;
73084;SDS011;62974;49.460;10.892;2023-04-24T07:49:32;2.35;;;1.38;;
73084;SDS011;62974;49.460;10.892;2023-04-24T07:52:01;1.60;;;1.05;;
73084;SDS011;62974;49.460;10.892;2023-04-24T07:54:28;2.90;;;1.40;;
73084;SDS011;62974;49.460;10.892;2023-04-24T07:56:56;1.88;;;0.80;;
73084;SDS011;62974;49.460;10.892;2023-04-24T07:59:23;1.85;;;1.02;;
73084;SDS011;62974;49.460;10.892;2023-04-24T08:01:52;4.57;;;1.73;;
73084;SDS011;62974;49.460;10.892;2023-04-24T08:04:20;2.30;;;1.50;;
73084;SDS011;62974;49.460;10.892;2023-04-24T08:06:48;2.42;;;1.20;;
73084;SDS011;62974;49.460;10.892;2023-04-24T08:09:16;1.95;;;1.13;;
73084;SDS011;62974;49.460;10.892;2023-04-24T08:11:43;2.25;;;1.20;;
73084;SDS011;62974;49.460;10.892;2023-04-24T08:14:11;2.83;;;1.60;;
73084;SDS011;62974;49.460;10.892;2023-04-24T08:16:39;3.28;;;1.30;;
73084;SDS011;62974;49.460;10.892;2023-04-24T08:19:08;2.42;;;1.73;;
73084;SDS011;62974;49.460;10.892;2023-04-24T08:21:36;3.33;;;1.65;;
73084;SDS011;62974;49.460;10.892;2023-04-24T08:24:04;3.50;;;1.10;;
73084;SDS011;62974;49.460;10.892;2023-04-24T08:26:34;3.28;;;1.58;;
73084;SDS011;62974;49.460;10.892;2023-04-24T08:29:01;2.95;;;1.27;;
73084;SDS011;62974;49.460;10.892;2023-04-24T08:31:29;5.93;;;1.80;;
73084;SDS011;62974;49.460;10.892;2023-04-24T08:33:56;2.47;;;1.17;;
73084;SDS011;62974;49.460;10.892;2023-04-24T08:36:26;1.00;;;0.90;;
73084;SDS011;62974;49.460;10.892;2023-04-24T08:39:12;4.57;;;1.52;;
73084;SDS011;62974;49.460;10.892;2023-04-24T08:41:41;2.08;;;1.27;;
73084;SDS011;62974;49.460;10.892;2023-04-24T08:44:11;2.60;;;1.25;;
73084;SDS011;62974;49.460;10.892;2023-04-24T08:46:42;2.10;;;1.50;;
73084;SDS011;62974;49.460;10.892;2023-04-24T08:51:40;2.25;;;1.08;;
73084;SDS011;62974;49.460;10.892;2023-04-24T08:54:08;2.17;;;0.93;;
73084;SDS011;62974;49.460;10.892;2023-04-24T08:56:36;2.50;;;1.20;;
73084;SDS011;62974;49.460;10.892;2023-04-24T08:59:05;1.90;;;1.10;;
73084;SDS011;62974;49.460;10.892;2023-04-24T09:01:33;3.78;;;1.48;;
73084;SDS011;62974;49.460;10.892;2023-04-24T09:06:30;2.63;;;0.85;;
73084;SDS011;62974;49.460;10.892;2023-04-24T09:09:00;2.15;;;1.35;;
73084;SDS011;62974;49.460;10.892;2023-04-24T09:11:29;2.63;;;1.40;;
73084;SDS011;62974;49.460;10.892;2023-04-24T09:16:25;1.02;;;0.60;;
73084;SDS011;62974;49.460;10.892;2023-04-24T09:18:53;2.15;;;1.30;;
73084;SDS011;62974;49.460;10.892;2023-04-24T09:21:21;2.80;;;1.38;;
73084;SDS011;62974;49.460;10.892;2023-04-24T09:23:57;3.33;;;1.60;;
73084;SDS011;62974;49.460;10.892;2023-04-24T09:26:27;2.03;;;1.30;;
73084;SDS011;62974;49.460;10.892;2023-04-24T09:28:58;3.47;;;1.75;;
73084;SDS011;62974;49.460;10.892;2023-04-24T09:31:27;3.25;;;1.92;;
73084;SDS011;62974;49.460;10.892;2023-04-24T09:33:56;2.35;;;1.08;;
73084;SDS011;62974;49.460;10.892;2023-04-24T09:36:27;0.90;;;0.65;;
73084;SDS011;62974;49.460;10.892;2023-04-24T09:38:59;2.38;;;0.98;;
73084;SDS011;62974;49.460;10.892;2023-04-24T09:41:28;0.38;;;0.32;;
73084;SDS011;62974;49.460;10.892;2023-04-24T09:43:56;1.83;;;0.77;;
73084;SDS011;62974;49.460;10.892;2023-04-24T09:46:29;1.63;;;0.52;;
73084;SDS011;62974;49.460;10.892;2023-04-24T09:49:02;0.90;;;0.60;;
73084;SDS011;62974;49.460;10.892;2023-04-24T09:51:35;2.22;;;0.70;;
73084;SDS011;62974;49.460;10.892;2023-04-24T09:54:04;2.03;;;1.20;;
73084;SDS011;62974;49.460;10.892;2023-04-24T09:56:39;0.77;;;0.28;;
73084;SDS011;62974;49.460;10.892;2023-04-24T09:59:09;1.67;;;1.02;;
73084;SDS011;62974;49.460;10.892;2023-04-24T10:01:37;2.13;;;0.82;;
73084;SDS011;62974;49.460;10.892;2023-04-24T10:04:14;1.00;;;0.70;;
73084;SDS011;62974;49.460;10.892;2023-04-24T10:06:44;1.05;;;0.70;;
73084;SDS011;62974;49.460;10.892;2023-04-24T10:11:42;2.15;;;1.02;;
73084;SDS011;62974;49.460;10.892;2023-04-24T10:14:12;2.83;;;0.52;;
73084;SDS011;62974;49.460;10.892;2023-04-24T10:16:42;1.63;;;0.70;;
73084;SDS011;62974;49.460;10.892;2023-04-24T10:19:12;1.42;;;0.80;;
73084;SDS011;62974;49.460;10.892;2023-04-24T10:21:41;1.15;;;0.70;;
73084;SDS011;62974;49.460;10.892;2023-04-24T10:24:12;1.58;;;0.70;;
73084;SDS011;62974;49.460;10.892;2023-04-24T10:26:44;1.50;;;0.75;;
73084;SDS011;62974;49.460;10.892;2023-04-24T10:29:14;0.63;;;0.40;;
73084;SDS011;62974;49.460;10.892;2023-04-24T10:31:44;1.02;;;0.60;;
73084;SDS011;62974;49.460;10.892;2023-04-24T10:34:14;1.25;;;0.70;;
73084;SDS011;62974;49.460;10.892;2023-04-24T10:36:43;2.33;;;0.90;;
73084;SDS011;62974;49.460;10.892;2023-04-24T10:39:14;0.75;;;0.43;;
73084;SDS011;62974;49.460;10.892;2023-04-24T10:41:45;2.28;;;0.77;;
73084;SDS011;62974;49.460;10.892;2023-04-24T10:44:14;0.40;;;0.30;;
73084;SDS011;62974;49.460;10.892;2023-04-24T10:46:43;1.60;;;0.60;;
73084;SDS011;62974;49.460;10.892;2023-04-24T10:49:11;1.27;;;0.77;;
73084;SDS011;62974;49.460;10.892;2023-04-24T10:51:46;0.90;;;0.60;;
73084;SDS011;62974;49.460;10.892;2023-04-24T10:54:24;0.43;;;0.30;;
73084;SDS011;62974;49.460;10.892;2023-04-24T10:56:56;2.17;;;0.70;;
73084;SDS011;62974;49.460;10.892;2023-04-24T11:00:15;1.25;;;0.75;;
73084;SDS011;62974;49.460;10.892;2023-04-24T11:02:46;1.65;;;0.80;;
73084;SDS011;62974;49.460;10.892;2023-04-24T11:05:19;4.25;;;0.90;;
73084;SDS011;62974;49.460;10.892;2023-04-24T11:10:34;1.20;;;0.88;;
73084;SDS011;62974;49.460;10.892;2023-04-24T11:13:07;1.70;;;0.80;;
73084;SDS011;62974;49.460;10.892;2023-04-24T11:15:36;0.70;;;0.60;;
73084;SDS011;62974;49.460;10.892;2023-04-24T11:18:04;1.85;;;1.30;;
73084;SDS011;62974;49.460;10.892;2023-04-24T11:20:31;2.67;;;1.13;;
73084;SDS011;62974;49.460;10.892;2023-04-24T11:23:03;2.00;;;1.20;;
73084;SDS011;62974;49.460;10.892;2023-04-24T11:25:32;1.33;;;0.80;;
73084;SDS011;62974;49.460;10.892;2023-04-24T11:28:03;1.58;;;0.82;;
73084;SDS011;62974;49.460;10.892;2023-04-24T11:30:33;1.08;;;0.85;;
73084;SDS011;62974;49.460;10.892;2023-04-24T11:33:01;2.58;;;1.38;;
73084;SDS011;62974;49.460;10.892;2023-04-24T11:35:34;3.33;;;1.52;;
73084;SDS011;62974;49.460;10.892;2023-04-24T11:38:06;2.58;;;1.30;;
73084;SDS011;62974;49.460;10.892;2023-04-24T11:40:37;3.60;;;1.20;;
73084;SDS011;62974;49.460;10.892;2023-04-24T11:43:06;2.05;;;1.30;;
73084;SDS011;62974;49.460;10.892;2023-04-24T11:45:35;2.78;;;1.33;;
73084;SDS011;62974;49.460;10.892;2023-04-24T11:48:03;2.20;;;1.27;;
73084;SDS011;62974;49.460;10.892;2023-04-24T11:50:31;2.53;;;1.38;;
73084;SDS011;62974;49.460;10.892;2023-04-24T11:52:58;1.77;;;1.05;;
73084;SDS011;62974;49.460;10.892;2023-04-24T11:55:27;3.53;;;0.98;;
73084;SDS011;62974;49.460;10.892;2023-04-24T11:57:55;2.13;;;1.10;;
73084;SDS011;62974;49.460;10.892;2023-04-24T12:00:25;1.83;;;0.75;;
73084;SDS011;62974;49.460;10.892;2023-04-24T12:03:04;1.17;;;0.80;;
73084;SDS011;62974;49.460;10.892;2023-04-24T12:05:33;0.93;;;0.68;;
73084;SDS011;62974;49.460;10.892;2023-04-24T12:08:02;1.40;;;0.90;;
73084;SDS011;62974;49.460;10.892;2023-04-24T12:10:31;1.27;;;0.45;;
73084;SDS011;62974;49.460;10.892;2023-04-24T12:13:00;2.50;;;0.88;;
73084;SDS011;62974;49.460;10.892;2023-04-24T12:15:28;1.75;;;1.20;;
73084;SDS011;62974;49.460;10.892;2023-04-24T12:17:56;3.92;;;1.02;;
73084;SDS011;62974;49.460;10.892;2023-04-24T12:20:26;2.42;;;1.13;;
73084;SDS011;62974;49.460;10.892;2023-04-24T12:22:54;2.75;;;1.00;;
73084;SDS011;62974;49.460;10.892;2023-04-24T12:25:23;0.40;;;0.30;;
73084;SDS011;62974;49.460;10.892;2023-04-24T12:27:53;2.80;;;1.10;;
73084;SDS011;62974;49.460;10.892;2023-04-24T12:30:25;2.65;;;1.40;;
73084;SDS011;62974;49.460;10.892;2023-04-24T12:32:54;1.33;;;0.75;;
73084;SDS011;62974;49.460;10.892;2023-04-24T12:35:27;1.92;;;0.80;;
73084;SDS011;62974;49.460;10.892;2023-04-24T12:38:04;1.50;;;0.95;;
73084;SDS011;62974;49.460;10.892;2023-04-24T12:40:32;2.65;;;0.80;;
73084;SDS011;62974;49.460;10.892;2023-04-24T12:43:00;1.70;;;0.47;;
73084;SDS011;62974;49.460;10.892;2023-04-24T12:45:27;1.85;;;1.20;;
73084;SDS011;62974;49.460;10.892;2023-04-24T12:47:55;1.52;;;0.90;;
73084;SDS011;62974;49.460;10.892;2023-04-24T12:50:22;1.23;;;0.77;;
73084;SDS011;62974;49.460;10.892;2023-04-24T12:52:51;1.45;;;0.77;;
73084;SDS011;62974;49.460;10.892;2023-04-24T12:55:19;1.92;;;1.00;;
73084;SDS011;62974;49.460;10.892;2023-04-24T12:57:46;1.40;;;0.85;;
73084;SDS011;62974;49.460;10.892;2023-04-24T13:00:15;1.75;;;0.77;;
73084;SDS011;62974;49.460;10.892;2023-04-24T13:02:45;1.67;;;0.80;;
73084;SDS011;62974;49.460;10.892;2023-04-24T13:05:13;2.30;;;1.00;;
73084;SDS011;62974;49.460;10.892;2023-04-24T13:10:10;3.42;;;1.27;;
73084;SDS011;62974;49.460;10.892;2023-04-24T13:12:39;1.25;;;0.50;;
73084;SDS011;62974;49.460;10.892;2023-04-24T13:15:07;1.40;;;0.93;;
73084;SDS011;62974;49.460;10.892;2023-04-24T13:17:35;2.55;;;1.25;;
73084;SDS011;62974;49.460;10.892;2023-04-24T13:20:02;1.27;;;0.73;;
73084;SDS011;62974;49.460;10.892;2023-04-24T13:24:58;3.08;;;1.27;;
73084;SDS011;62974;49.460;10.892;2023-04-24T13:27:28;4.55;;;1.35;;
73084;SDS011;62974;49.460;10.892;2023-04-24T13:29:56;1.42;;;1.00;;
73084;SDS011;62974;49.460;10.892;2023-04-24T13:32:23;1.55;;;0.98;;
73084;SDS011;62974;49.460;10.892;2023-04-24T13:34:51;2.15;;;1.13;;
73084;SDS011;62974;49.460;10.892;2023-04-24T13:37:19;2.13;;;1.13;;
73084;SDS011;62974;49.460;10.892;2023-04-24T13:39:47;1.45;;;0.63;;
73084;SDS011;62974;49.460;10.892;2023-04-24T13:42:14;2.30;;;1.00;;
73084;SDS011;62974;49.460;10.892;2023-04-24T13:44:43;3.10;;;1.45;;
73084;SDS011;62974;49.460;10.892;2023-04-24T13:47:10;1.02;;;0.60;;
73084;SDS011;62974;49.460;10.892;2023-04-24T13:49:38;1.50;;;1.05;;
73084;SDS011;62974;49.460;10.892;2023-04-24T13:52:06;1.60;;;0.60;;
73084;SDS011;62974;49.460;10.892;2023-04-24T13:54:33;2.72;;;1.50;;
73084;SDS011;62974;49.460;10.892;2023-04-24T13:57:01;2.38;;;1.55;;
73084;SDS011;62974;49.460;10.892;2023-04-24T13:59:28;5.00;;;2.40;;
73084;SDS011;62974;49.460;10.892;2023-04-24T14:01:58;2.25;;;1.10;;
73084;SDS011;62974;49.460;10.892;2023-04-24T14:04:25;2.25;;;1.42;;
73084;SDS011;62974;49.460;10.892;2023-04-24T14:06:53;1.73;;;1.02;;
73084;SDS011;62974;49.460;10.892;2023-04-24T14:09:20;1.60;;;1.08;;
73084;SDS011;62974;49.460;10.892;2023-04-24T14:11:48;2.13;;;1.38;;
73084;SDS011;62974;49.460;10.892;2023-04-24T14:14:15;2.65;;;1.30;;
73084;SDS011;62974;49.460;10.892;2023-04-24T14:16:43;4.05;;;1.67;;
73084;SDS011;62974;49.460;10.892;2023-04-24T14:19:12;2.60;;;1.05;;
73084;SDS011;62974;49.460;10.892;2023-04-24T14:21:40;3.88;;;1.40;;
73084;SDS011;62974;49.460;10.892;2023-04-24T14:24:07;2.50;;;1.20;;
73084;SDS011;62974;49.460;10.892;2023-04-24T14:26:35;2.25;;;1.23;;
73084;SDS011;62974;49.460;10.892;2023-04-24T14:29:02;1.90;;;1.20;;
73084;SDS011;62974;49.460;10.892;2023-04-24T14:31:40;2.95;;;1.30;;
73084;SDS011;62974;49.460;10.892;2023-04-24T14:34:08;1.60;;;0.98;;
73084;SDS011;62974;49.460;10.892;2023-04-24T14:36:37;1.15;;;0.32;;
73084;SDS011;62974;49.460;10.892;2023-04-24T14:39:04;2.47;;;0.90;;
73084;SDS011;62974;49.460;10.892;2023-04-24T14:41:33;2.20;;;1.40;;
73084;SDS011;62974;49.460;10.892;2023-04-24T14:44:02;2.15;;;0.82;;
73084;SDS011;62974;49.460;10.892;2023-04-24T14:46:29;0.93;;;0.63;;
73084;SDS011;62974;49.460;10.892;2023-04-24T14:48:57;2.75;;;1.08;;
73084;SDS011;62974;49.460;10.892;2023-04-24T14:51:25;2.53;;;1.40;;
73084;SDS011;62974;49.460;10.892;2023-04-24T14:53:54;2.33;;;0.90;;
73084;SDS011;62974;49.460;10.892;2023-04-24T14:56:23;2.90;;;1.73;;
73084;SDS011;62974;49.460;10.892;2023-04-24T14:58:50;2.60;;;1.30;;